createdAt,value
2022-10-15T00:01:57.041Z,0.70
2022-10-15T00:04:24.362Z,0.80
2022-10-15T00:06:51.546Z,0.70
2022-10-15T00:09:18.831Z,0.70
2022-10-15T00:11:45.819Z,0.80
2022-10-15T00:14:13.076Z,0.80
2022-10-15T00:16:40.832Z,0.83
2022-10-15T00:19:08.568Z,0.70
2022-10-15T00:21:36.363Z,0.80
2022-10-15T00:24:04.299Z,0.90
2022-10-15T00:26:31.731Z,0.80
2022-10-15T00:29:00.673Z,0.90
2022-10-15T00:31:30.705Z,0.70
2022-10-15T00:34:01.639Z,0.80
2022-10-15T00:36:35.515Z,0.90
2022-10-15T00:39:04.644Z,0.80
2022-10-15T00:41:33.968Z,0.83
2022-10-15T00:44:02.863Z,1.07
2022-10-15T00:46:36.821Z,1.00
2022-10-15T00:49:14.960Z,1.00
2022-10-15T00:51:44.978Z,0.83
2022-10-15T00:54:12.825Z,0.90
2022-10-15T00:56:41.955Z,0.67
2022-10-15T00:59:09.973Z,0.80
2022-10-15T01:01:37.537Z,0.60
2022-10-15T01:04:05.360Z,0.70
2022-10-15T01:06:33.251Z,0.40
2022-10-15T01:09:01.197Z,0.70
2022-10-15T01:11:57.685Z,0.73
2022-10-15T01:15:11.096Z,0.83
2022-10-15T01:17:48.084Z,0.67
2022-10-15T01:21:07.704Z,0.60
2022-10-15T01:24:03.077Z,0.50
2022-10-15T01:26:51.073Z,0.63
2022-10-15T01:29:39.666Z,0.60
2022-10-15T01:32:33.764Z,0.70
2022-10-15T01:35:29.277Z,0.70
2022-10-15T01:38:00.919Z,0.60
2022-10-15T01:40:34.885Z,0.73
2022-10-15T01:43:05.065Z,0.53
2022-10-15T01:45:53.513Z,0.47
2022-10-15T01:48:35.830Z,0.77
2022-10-15T01:51:06.637Z,0.60
2022-10-15T01:53:35.345Z,0.50
2022-10-15T01:56:14.193Z,0.73
2022-10-15T01:58:43.238Z,0.73
2022-10-15T02:01:11.423Z,0.77
2022-10-15T02:04:17.756Z,0.50
2022-10-15T02:07:03.159Z,1.00
2022-10-15T02:09:53.834Z,0.57
2022-10-15T02:12:48.335Z,0.80
2022-10-15T02:15:25.962Z,0.50
2022-10-15T02:18:05.462Z,1.00
2022-10-15T02:20:53.428Z,0.80
2022-10-15T02:23:44.652Z,0.70
2022-10-15T02:26:13.332Z,0.73
2022-10-15T02:28:43.427Z,0.77
2022-10-15T02:31:14.640Z,0.70
2022-10-15T02:33:43.515Z,0.70
2022-10-15T02:36:14.733Z,0.70
2022-10-15T02:38:44.776Z,0.60
2022-10-15T02:41:12.998Z,0.80
2022-10-15T02:43:41.865Z,0.90
2022-10-15T02:46:12.729Z,0.90
2022-10-15T02:48:39.802Z,0.87
2022-10-15T02:51:07.223Z,1.00
2022-10-15T02:53:35.471Z,0.90
2022-10-15T02:56:04.509Z,0.80
2022-10-15T02:58:32.228Z,1.47
2022-10-15T03:00:59.552Z,0.90
2022-10-15T03:03:28.848Z,1.30
2022-10-15T03:05:56.852Z,1.30
2022-10-15T03:08:24.412Z,1.17
2022-10-15T03:10:51.981Z,1.00
2022-10-15T03:13:19.667Z,0.90
2022-10-15T03:15:52.302Z,1.00
2022-10-15T03:18:22.648Z,1.20
2022-10-15T03:20:58.596Z,0.90
2022-10-15T03:23:26.487Z,1.30
2022-10-15T03:26:04.282Z,1.10
2022-10-15T03:28:32.324Z,1.17
2022-10-15T03:31:00.400Z,1.20
2022-10-15T03:33:28.912Z,0.93
2022-10-15T03:35:57.608Z,1.60
2022-10-15T03:38:25.934Z,0.93
2022-10-15T03:40:54.473Z,1.00
2022-10-15T03:43:43.049Z,1.10
2022-10-15T03:46:12.720Z,1.27
2022-10-15T03:48:43.987Z,1.10
2022-10-15T03:51:15.706Z,1.47
2022-10-15T03:53:48.108Z,1.27
2022-10-15T03:56:15.934Z,1.37
2022-10-15T03:58:43.691Z,1.10
2022-10-15T04:01:17.082Z,1.37
2022-10-15T04:03:45.345Z,1.40
2022-10-15T04:06:17.952Z,1.27
2022-10-15T04:08:46.299Z,1.30
2022-10-15T04:11:25.893Z,1.30
2022-10-15T04:14:02.338Z,1.30
2022-10-15T04:16:34.225Z,1.13
2022-10-15T04:19:11.223Z,1.43
2022-10-15T04:21:40.509Z,1.43
2022-10-15T04:24:09.279Z,1.50
2022-10-15T04:26:40.717Z,1.50
2022-10-15T04:29:08.678Z,1.50
2022-10-15T04:31:37.878Z,1.20
2022-10-15T04:34:06.381Z,1.27
2022-10-15T04:36:34.142Z,1.43
2022-10-15T04:39:12.259Z,1.50
2022-10-15T04:41:44.139Z,1.30
2022-10-15T04:44:18.092Z,1.40
2022-10-15T04:46:53.945Z,1.37
2022-10-15T04:49:35.286Z,1.47
2022-10-15T04:52:08.874Z,1.40
2022-10-15T04:54:56.278Z,1.53
2022-10-15T04:57:24.178Z,1.47
2022-10-15T04:59:56.873Z,1.20
2022-10-15T05:02:45.590Z,2.03
2022-10-15T05:05:36.458Z,1.80
2022-10-15T05:08:05.870Z,1.80
2022-10-15T05:10:45.332Z,1.77
2022-10-15T05:13:13.209Z,1.40
2022-10-15T05:15:40.913Z,1.10
2022-10-15T05:18:10.488Z,1.60
2022-10-15T05:20:47.559Z,1.60
2022-10-15T05:23:18.395Z,1.97
2022-10-15T05:25:55.148Z,1.77
2022-10-15T05:28:26.262Z,1.77
2022-10-15T05:30:54.540Z,1.77
2022-10-15T05:33:21.954Z,1.67
2022-10-15T05:35:49.431Z,1.90
2022-10-15T05:38:19.887Z,1.83
2022-10-15T05:40:50.963Z,2.00
2022-10-15T05:43:23.422Z,1.70
2022-10-15T05:45:54.700Z,1.97
2022-10-15T05:48:23.450Z,1.43
2022-10-15T05:50:51.079Z,1.90
2022-10-15T05:53:24.640Z,1.80
2022-10-15T05:55:55.938Z,2.00
2022-10-15T05:58:30.827Z,1.80
2022-10-15T06:01:02.220Z,1.60
2022-10-15T06:03:29.633Z,1.60
2022-10-15T06:05:57.318Z,1.40
2022-10-15T06:08:25.032Z,1.33
2022-10-15T06:10:52.875Z,2.00
2022-10-15T06:13:20.590Z,2.10
2022-10-15T06:15:48.296Z,1.67
2022-10-15T06:18:16.502Z,1.60
2022-10-15T06:20:45.033Z,1.17
2022-10-15T06:23:13.569Z,1.90
2022-10-15T06:25:41.248Z,1.57
2022-10-15T06:28:09.686Z,1.70
2022-10-15T06:30:42.264Z,1.30
2022-10-15T06:35:42.844Z,2.00
2022-10-15T06:38:10.540Z,1.70
2022-10-15T06:40:39.301Z,2.60
2022-10-15T06:43:10.995Z,1.60
2022-10-15T06:45:40.709Z,1.50
2022-10-15T06:48:15.629Z,1.53
2022-10-15T06:50:43.306Z,1.50
2022-10-15T06:53:10.931Z,1.63
2022-10-15T06:55:39.661Z,1.70
2022-10-15T06:58:07.403Z,2.27
2022-10-15T07:03:06.949Z,1.70
2022-10-15T07:05:35.177Z,1.70
2022-10-15T07:08:02.837Z,1.93
2022-10-15T07:10:31.215Z,1.87
2022-10-15T07:13:02.133Z,1.50
2022-10-15T07:15:30.082Z,1.10
2022-10-15T07:18:01.628Z,1.07
2022-10-15T07:20:32.700Z,1.10
2022-10-15T07:23:02.039Z,1.30
2022-10-15T07:25:34.924Z,1.50
2022-10-15T07:28:02.605Z,1.43
2022-10-15T07:30:30.246Z,1.50
2022-10-15T07:32:58.564Z,1.33
2022-10-15T07:35:27.165Z,1.40
2022-10-15T07:37:55.185Z,1.23
2022-10-15T07:40:22.851Z,1.10
2022-10-15T07:42:54.727Z,1.40
2022-10-15T07:45:22.869Z,1.20
2022-10-15T07:47:50.694Z,1.53
2022-10-15T07:50:18.505Z,1.23
2022-10-15T07:52:46.927Z,1.33
2022-10-15T07:55:14.798Z,1.40
2022-10-15T07:57:42.416Z,1.67
2022-10-15T08:00:10.082Z,1.20
2022-10-15T08:02:40.607Z,1.40
2022-10-15T08:05:08.473Z,1.20
2022-10-15T08:07:36.168Z,1.70
2022-10-15T08:10:08.197Z,1.13
2022-10-15T08:12:37.446Z,1.00
2022-10-15T08:15:04.921Z,1.23
2022-10-15T08:17:32.747Z,1.30
2022-10-15T08:20:00.009Z,1.63
2022-10-15T08:22:27.622Z,1.37
2022-10-15T08:24:56.520Z,1.60
2022-10-15T08:27:23.567Z,1.23
2022-10-15T08:29:57.242Z,1.17
2022-10-15T08:32:24.477Z,1.30
2022-10-15T08:34:51.696Z,1.70
2022-10-15T08:37:18.826Z,1.40
2022-10-15T08:39:46.746Z,1.20
2022-10-15T08:42:28.738Z,1.57
2022-10-15T08:45:06.900Z,1.50
2022-10-15T08:47:41.992Z,1.13
2022-10-15T08:50:48.284Z,1.43
2022-10-15T08:53:22.310Z,1.20
2022-10-15T08:55:52.081Z,1.30
2022-10-15T08:58:30.501Z,1.20
2022-10-15T09:01:00.588Z,1.50
2022-10-15T09:04:22.036Z,1.63
2022-10-15T09:06:52.724Z,1.20
2022-10-15T09:09:44.479Z,1.40
2022-10-15T09:13:03.645Z,1.50
2022-10-15T09:15:34.892Z,1.60
2022-10-15T09:18:02.576Z,1.50
2022-10-15T09:20:37.161Z,1.30
2022-10-15T09:23:04.856Z,1.57
2022-10-15T09:25:40.694Z,1.20
2022-10-15T09:28:15.455Z,1.20
2022-10-15T09:30:54.390Z,1.33
2022-10-15T09:33:47.861Z,1.00
2022-10-15T09:36:22.665Z,1.10
2022-10-15T09:38:55.653Z,1.37
2022-10-15T09:41:53.845Z,1.40
2022-10-15T09:44:23.421Z,1.90
2022-10-15T09:46:52.010Z,1.57
2022-10-15T09:49:25.724Z,1.23
2022-10-15T09:52:16.702Z,1.33
2022-10-15T09:55:13.694Z,1.30
2022-10-15T09:57:41.567Z,1.40
2022-10-15T10:00:10.862Z,1.00
2022-10-15T10:03:01.122Z,1.07
2022-10-15T10:05:33.294Z,1.00
2022-10-15T10:08:19.826Z,1.50
2022-10-15T10:10:54.470Z,1.17
2022-10-15T10:13:26.610Z,1.50
2022-10-15T10:15:58.363Z,1.00
2022-10-15T10:18:27.429Z,1.40
2022-10-15T10:21:02.609Z,1.30
2022-10-15T10:23:39.942Z,1.30
2022-10-15T10:26:08.236Z,1.33
2022-10-15T10:28:40.570Z,1.57
2022-10-15T10:31:11.599Z,1.50
2022-10-15T10:33:49.717Z,1.10
2022-10-15T10:36:39.531Z,1.27
2022-10-15T10:39:29.588Z,1.30
2022-10-15T10:42:24.958Z,1.40
2022-10-15T10:44:53.482Z,1.20
2022-10-15T10:47:22.938Z,1.43
2022-10-15T10:49:55.447Z,1.20
2022-10-15T10:52:30.157Z,1.30
2022-10-15T10:55:09.295Z,1.10
2022-10-15T10:57:42.699Z,1.83
2022-10-15T11:00:14.474Z,1.40
2022-10-15T11:02:44.090Z,1.40
2022-10-15T11:05:12.575Z,1.30
2022-10-15T11:07:48.129Z,1.50
2022-10-15T11:10:26.766Z,2.00
2022-10-15T11:13:07.383Z,1.60
2022-10-15T11:15:42.668Z,1.00
2022-10-15T11:18:30.414Z,1.10
2022-10-15T11:21:07.231Z,1.20
2022-10-15T11:23:55.784Z,0.97
2022-10-15T11:26:59.031Z,1.33
2022-10-15T11:29:52.346Z,1.13
2022-10-15T11:33:06.090Z,1.30
2022-10-15T11:35:54.389Z,1.03
2022-10-15T11:38:45.603Z,0.93
2022-10-15T11:41:32.345Z,0.73
2022-10-15T11:44:23.057Z,0.80
2022-10-15T11:47:12.901Z,1.10
2022-10-15T11:49:54.313Z,0.90
2022-10-15T11:52:54.538Z,0.70
2022-10-15T11:55:24.307Z,1.03
2022-10-15T11:57:53.564Z,0.90
2022-10-15T12:00:49.662Z,0.90
2022-10-15T12:03:22.501Z,0.90
2022-10-15T12:06:14.383Z,1.33
2022-10-15T12:08:42.748Z,1.10
2022-10-15T12:11:42.001Z,1.00
2022-10-15T12:14:37.452Z,0.87
2022-10-15T12:17:25.189Z,1.40
2022-10-15T12:19:54.672Z,1.30
2022-10-15T12:22:34.399Z,1.23
2022-10-15T12:25:02.422Z,1.10
2022-10-15T12:27:35.079Z,1.17
2022-10-15T12:30:21.079Z,1.07
2022-10-15T12:32:50.009Z,1.17
2022-10-15T12:35:38.568Z,0.93
2022-10-15T12:38:33.100Z,1.07
2022-10-15T12:41:07.053Z,1.13
2022-10-15T12:43:38.170Z,1.00
2022-10-15T12:46:07.763Z,1.07
2022-10-15T12:48:37.941Z,0.93
2022-10-15T12:51:36.886Z,1.10
2022-10-15T12:54:50.105Z,1.00
2022-10-15T12:57:55.871Z,1.00
2022-10-15T13:00:32.230Z,0.87
2022-10-15T13:03:17.682Z,1.53
2022-10-15T13:05:47.779Z,1.13
2022-10-15T13:08:26.409Z,1.30
2022-10-15T13:10:59.463Z,1.00
2022-10-15T13:13:30.977Z,0.90
2022-10-15T13:16:02.237Z,1.10
2022-10-15T13:18:31.858Z,1.50
2022-10-15T13:20:59.723Z,1.03
2022-10-15T13:23:32.610Z,0.90
2022-10-15T13:26:21.710Z,1.07
2022-10-15T13:28:50.987Z,0.83
2022-10-15T13:31:30.771Z,0.70
2022-10-15T13:34:31.848Z,0.70
2022-10-15T13:37:03.912Z,0.70
2022-10-15T13:39:37.513Z,1.00
2022-10-15T13:42:31.513Z,0.87
2022-10-15T13:45:18.585Z,0.70
2022-10-15T13:47:50.630Z,0.97
2022-10-15T13:50:24.617Z,0.80
2022-10-15T13:53:15.619Z,1.00
2022-10-15T13:55:50.785Z,1.20
2022-10-15T13:58:35.124Z,1.67
2022-10-15T14:01:18.317Z,0.90
2022-10-15T14:03:56.930Z,0.90
2022-10-15T14:06:35.162Z,1.90
2022-10-15T14:09:15.262Z,1.20
2022-10-15T14:11:42.418Z,0.90
2022-10-15T14:14:36.826Z,1.10
2022-10-15T14:17:09.911Z,1.23
2022-10-15T14:19:39.171Z,1.23
2022-10-15T14:22:06.704Z,1.07
2022-10-15T14:24:38.605Z,0.90
2022-10-15T14:27:15.803Z,0.63
2022-10-15T14:29:48.122Z,0.60
2022-10-15T14:32:48.642Z,0.77
2022-10-15T14:35:35.423Z,0.90
2022-10-15T14:38:05.151Z,0.80
2022-10-15T14:40:32.441Z,0.90
2022-10-15T14:43:18.506Z,0.77
2022-10-15T14:46:16.104Z,1.13
2022-10-15T14:48:44.569Z,1.00
2022-10-15T14:51:20.802Z,0.97
2022-10-15T14:53:48.444Z,0.83
2022-10-15T14:56:20.099Z,0.70
2022-10-15T14:58:54.259Z,0.60
2022-10-15T15:01:21.789Z,0.90
2022-10-15T15:03:52.165Z,0.70
2022-10-15T15:06:19.631Z,1.00
2022-10-15T15:08:46.729Z,0.60
2022-10-15T15:11:23.912Z,0.70
2022-10-15T15:13:52.325Z,0.70
2022-10-15T15:16:19.722Z,0.93
2022-10-15T15:18:48.833Z,1.27
2022-10-15T15:21:20.090Z,1.07
2022-10-15T15:23:48.398Z,0.87
2022-10-15T15:26:15.585Z,1.35
2022-10-15T15:28:42.694Z,1.00
2022-10-15T15:31:17.287Z,1.20
2022-10-15T15:33:44.389Z,1.00
2022-10-15T15:36:18.951Z,0.80
2022-10-15T15:38:49.996Z,1.08
2022-10-15T15:41:22.760Z,1.15
2022-10-15T15:43:50.669Z,1.08
2022-10-15T15:46:18.048Z,1.00
2022-10-15T15:48:45.126Z,1.10
2022-10-15T15:51:25.766Z,0.97
2022-10-15T15:53:53.089Z,1.27
2022-10-15T15:56:20.342Z,1.10
2022-10-15T15:58:50.395Z,1.23
2022-10-15T16:01:18.843Z,1.07
2022-10-15T16:03:46.529Z,1.33
2022-10-15T16:06:14.164Z,1.37
2022-10-15T16:08:41.294Z,1.13
2022-10-15T16:11:08.366Z,1.07
2022-10-15T16:13:35.738Z,1.10
2022-10-15T16:16:03.366Z,1.23
2022-10-15T16:18:30.459Z,1.40
2022-10-15T16:20:57.723Z,1.30
2022-10-15T16:23:24.768Z,1.30
2022-10-15T16:25:52.306Z,1.40
2022-10-15T16:28:19.357Z,1.37
2022-10-15T16:30:46.424Z,1.87
2022-10-15T16:33:13.525Z,1.90
2022-10-15T16:35:40.576Z,1.20
2022-10-15T16:38:07.642Z,1.80
2022-10-15T16:40:35.459Z,1.50
2022-10-15T16:43:02.894Z,1.63
2022-10-15T16:45:29.973Z,1.70
2022-10-15T16:47:57.223Z,1.30
2022-10-15T16:50:24.350Z,1.10
2022-10-15T16:52:51.320Z,1.50
2022-10-15T16:55:18.414Z,1.40
2022-10-15T16:57:45.744Z,1.30
2022-10-15T17:00:13.125Z,1.23
2022-10-15T17:02:40.175Z,1.17
2022-10-15T17:05:08.092Z,1.50
2022-10-15T17:07:35.072Z,1.73
2022-10-15T17:10:02.342Z,1.87
2022-10-15T17:12:29.481Z,1.70
2022-10-15T17:14:56.544Z,1.60
2022-10-15T17:17:23.598Z,1.40
2022-10-15T17:19:50.657Z,2.23
2022-10-15T17:22:17.714Z,1.50
2022-10-15T17:24:44.762Z,1.30
2022-10-15T17:27:11.968Z,1.87
2022-10-15T17:29:39.087Z,1.40
2022-10-15T17:32:06.088Z,1.50
2022-10-15T17:34:33.333Z,1.67
2022-10-15T17:37:00.790Z,1.73
2022-10-15T17:39:27.830Z,1.40
2022-10-15T17:41:55.056Z,1.90
2022-10-15T17:44:22.222Z,1.70
2022-10-15T17:46:50.735Z,2.13
2022-10-15T17:49:20.501Z,1.87
2022-10-15T17:51:47.761Z,2.10
2022-10-15T17:54:15.004Z,2.17
2022-10-15T17:56:43.141Z,2.20
2022-10-15T17:59:12.614Z,2.87
2022-10-15T18:02:00.747Z,2.03
2022-10-15T18:04:30.312Z,1.70
2022-10-15T18:06:57.427Z,1.77
2022-10-15T18:09:28.350Z,1.80
2022-10-15T18:11:58.777Z,1.87
2022-10-15T18:14:31.500Z,2.00
2022-10-15T18:16:58.671Z,1.50
2022-10-15T18:19:26.880Z,2.00
2022-10-15T18:21:55.462Z,1.87
2022-10-15T18:24:23.671Z,1.50
2022-10-15T18:26:51.951Z,1.40
2022-10-15T18:29:19.885Z,1.90
2022-10-15T18:31:47.522Z,1.90
2022-10-15T18:34:15.428Z,1.90
2022-10-15T18:36:43.745Z,1.80
2022-10-15T18:39:11.814Z,1.70
2022-10-15T18:41:40.369Z,1.93
2022-10-15T18:44:18.069Z,2.00
2022-10-15T18:46:45.710Z,1.80
2022-10-15T18:49:14.463Z,2.30
2022-10-15T18:51:41.958Z,1.60
2022-10-15T18:54:11.024Z,1.90
2022-10-15T18:56:38.380Z,1.83
2022-10-15T18:59:05.394Z,1.93
2022-10-15T19:01:37.575Z,1.70
2022-10-15T19:04:10.692Z,2.40
2022-10-15T19:06:40.621Z,1.43
2022-10-15T19:09:11.292Z,1.70
2022-10-15T19:11:39.825Z,1.97
2022-10-15T19:14:07.493Z,2.20
2022-10-15T19:16:35.478Z,2.30
2022-10-15T19:19:04.827Z,2.50
2022-10-15T19:21:32.673Z,1.90
2022-10-15T19:24:00.232Z,1.93
2022-10-15T19:26:28.484Z,2.10
2022-10-15T19:28:56.878Z,2.07
2022-10-15T19:31:39.929Z,2.20
2022-10-15T19:34:07.220Z,1.63
2022-10-15T19:36:37.926Z,2.30
2022-10-15T19:39:17.633Z,2.50
2022-10-15T19:41:45.719Z,2.50
2022-10-15T19:44:15.944Z,2.20
2022-10-15T19:46:44.009Z,2.07
2022-10-15T19:49:12.292Z,2.20
2022-10-15T19:51:39.627Z,2.03
2022-10-15T19:54:07.179Z,2.13
2022-10-15T19:56:34.873Z,2.07
2022-10-15T19:59:04.321Z,2.13
2022-10-15T20:01:32.051Z,2.40
2022-10-15T20:04:09.184Z,2.17
2022-10-15T20:06:38.631Z,2.50
2022-10-15T20:09:09.085Z,2.53
2022-10-15T20:11:37.210Z,2.30
2022-10-15T20:14:04.418Z,2.60
2022-10-15T20:16:33.396Z,2.37
2022-10-15T20:19:02.545Z,2.20
2022-10-15T20:21:29.855Z,2.50
2022-10-15T20:23:57.689Z,2.73
2022-10-15T20:26:24.767Z,2.57
2022-10-15T20:28:51.951Z,2.67
2022-10-15T20:31:21.554Z,2.90
2022-10-15T20:33:49.292Z,2.93
2022-10-15T20:36:22.696Z,2.93
2022-10-15T20:38:51.535Z,2.87
2022-10-15T20:41:19.774Z,3.00
2022-10-15T20:43:51.403Z,2.60
2022-10-15T20:46:43.766Z,2.77
2022-10-15T20:49:15.397Z,2.87
2022-10-15T20:51:44.785Z,2.63
2022-10-15T20:54:14.153Z,2.83
2022-10-15T20:56:42.561Z,2.50
2022-10-15T20:59:09.642Z,3.10
2022-10-15T21:01:37.786Z,2.70
2022-10-15T21:04:05.451Z,3.13
2022-10-15T21:06:33.159Z,3.00
2022-10-15T21:09:00.268Z,2.53
2022-10-15T21:11:27.470Z,2.33
2022-10-15T21:13:54.534Z,2.40
2022-10-15T21:16:24.567Z,2.30
2022-10-15T21:18:54.579Z,2.73
2022-10-15T21:21:21.767Z,2.93
2022-10-15T21:23:49.061Z,2.70
2022-10-15T21:26:17.595Z,2.73
2022-10-15T21:28:45.595Z,2.80
2022-10-15T21:31:15.773Z,3.60
2022-10-15T21:33:43.601Z,2.73
2022-10-15T21:36:22.033Z,2.60
2022-10-15T21:38:57.387Z,2.97
2022-10-15T21:41:26.232Z,2.70
2022-10-15T21:43:53.320Z,2.77
2022-10-15T21:46:20.476Z,3.23
2022-10-15T21:48:47.624Z,3.00
2022-10-15T21:51:17.891Z,2.80
2022-10-15T21:53:45.353Z,3.27
2022-10-15T21:56:12.608Z,3.40
2022-10-15T21:58:41.336Z,3.77
2022-10-15T22:01:22.004Z,3.10
2022-10-15T22:03:50.819Z,2.80
2022-10-15T22:06:18.915Z,2.60
2022-10-15T22:08:46.247Z,3.90
2022-10-15T22:11:22.725Z,3.40
2022-10-15T22:13:52.664Z,3.87
2022-10-15T22:16:20.709Z,4.40
2022-10-15T22:18:47.842Z,4.17
2022-10-15T22:21:26.544Z,5.10
2022-10-15T22:23:58.676Z,6.07
2022-10-15T22:26:29.166Z,8.53
2022-10-15T22:28:58.286Z,6.33
2022-10-15T22:31:26.610Z,5.03
2022-10-15T22:33:54.282Z,4.30
2022-10-15T22:36:23.553Z,4.07
2022-10-15T22:39:01.603Z,5.83
2022-10-15T22:41:30.660Z,5.90
2022-10-15T22:43:58.336Z,6.53
2022-10-15T22:46:26.334Z,6.40
2022-10-15T22:48:53.798Z,6.27
2022-10-15T22:51:21.264Z,5.43
2022-10-15T22:53:48.818Z,5.13
2022-10-15T22:56:17.935Z,5.37
2022-10-15T22:58:45.904Z,4.80
2022-10-15T23:01:24.300Z,4.63
2022-10-15T23:03:54.105Z,4.53
2022-10-15T23:06:21.888Z,5.03
2022-10-15T23:08:49.126Z,5.10
2022-10-15T23:11:25.565Z,4.43
2022-10-15T23:13:58.011Z,4.40
2022-10-15T23:16:33.844Z,4.13
2022-10-15T23:19:03.222Z,4.43
2022-10-15T23:21:44.875Z,4.73
2022-10-15T23:24:12.837Z,4.23
2022-10-15T23:26:40.912Z,4.23
2022-10-15T23:29:11.630Z,4.30
2022-10-15T23:31:38.712Z,4.57
2022-10-15T23:34:06.527Z,3.80
2022-10-15T23:36:34.178Z,3.63
2022-10-15T23:39:02.824Z,3.47
2022-10-15T23:41:31.010Z,4.13
2022-10-15T23:43:58.364Z,4.43
2022-10-15T23:46:26.171Z,3.77
2022-10-15T23:48:53.499Z,3.73
2022-10-15T23:51:23.350Z,3.07
2022-10-15T23:53:51.626Z,3.60
2022-10-15T23:56:19.378Z,4.57
2022-10-15T23:58:54.325Z,5.73
